TimePST,TemperatureF,Dew PointF,Humidity,Sea Level PressureIn,VisibilityMPH,Wind Direction,Wind SpeedMPH,Gust SpeedMPH,PrecipitationIn,Events,Conditions,WindDirDegrees,DateUTC
12:56 AM,24.1,12.0,60,29.76,10.0,Variable,3.5,-,N/A,,Clear,0,2012-12-12 08:56:00
1:56 AM,24.1,12.9,62,29.74,10.0,North,5.8,-,N/A,,Clear,350,2012-12-12 09:56:00
2:56 AM,21.0,10.9,65,29.73,10.0,NNE,5.8,-,N/A,,Clear,20,2012-12-12 10:56:00
3:56 AM,23.0,14.0,68,29.73,10.0,ENE,4.6,-,N/A,,Clear,60,2012-12-12 11:56:00
4:56 AM,24.1,12.9,62,29.70,10.0,Variable,3.5,-,N/A,,Clear,0,2012-12-12 12:56:00
5:56 AM,25.0,14.0,63,29.73,10.0,WSW,5.8,-,N/A,,Clear,250,2012-12-12 13:56:00
6:56 AM,25.0,14.0,63,29.72,10.0,NNW,9.2,-,N/A,,Clear,330,2012-12-12 14:56:00
7:56 AM,37.9,14.0,38,29.71,10.0,Calm,Calm,-,N/A,,Clear,0,2012-12-12 15:56:00
8:56 AM,48.9,14.0,25,29.70,10.0,NW,3.5,-,N/A,,Clear,320,2012-12-12 16:56:00
9:56 AM,55.0,10.0,17,29.70,10.0,SE,6.9,-,N/A,,Clear,140,2012-12-12 17:56:00
10:56 AM,57.0,10.0,15,29.68,10.0,SSE,17.3,24.2,N/A,,Clear,160,2012-12-12 18:56:00
11:56 AM,57.9,10.9,16,29.65,10.0,SE,19.6,24.2,N/A,,Clear,140,2012-12-12 19:56:00
12:56 PM,59.0,10.4,15,29.66,10.0,SE,16.1,23.0,N/A,,Clear,140,2012-12-12 20:56:00
1:56 PM,57.9,14.0,18,29.61,10.0,SSE,17.3,28.8,N/A,,Clear,150,2012-12-12 21:56:00
2:56 PM,57.0,10.0,15,29.61,10.0,SSE,17.3,25.3,N/A,,Clear,160,2012-12-12 22:56:00
3:56 PM,51.1,19.0,28,29.62,10.0,SSE,10.4,-,N/A,,Partly Cloudy,160,2012-12-12 23:56:00
4:56 PM,48.9,17.1,28,29.62,10.0,SSE,12.7,-,N/A,,Partly Cloudy,150,2012-12-13 00:56:00
5:56 PM,48.9,17.1,28,29.62,10.0,SE,15.0,-,N/A,,Clear,140,2012-12-13 01:56:00
6:56 PM,48.0,17.1,29,29.62,10.0,SE,19.6,25.3,N/A,,Partly Cloudy,140,2012-12-13 02:56:00
7:56 PM,48.0,19.0,32,29.61,10.0,SSE,20.7,25.3,N/A,,Mostly Cloudy,150,2012-12-13 03:56:00
8:56 PM,46.9,23.0,39,29.60,10.0,SE,19.6,27.6,N/A,,Mostly Cloudy,140,2012-12-13 04:56:00
9:56 PM,46.9,26.1,44,29.60,10.0,SSE,20.7,33.4,N/A,,Overcast,160,2012-12-13 05:56:00
10:56 PM,46.0,26.1,46,29.61,10.0,South,19.6,26.5,N/A,,Mostly Cloudy,180,2012-12-13 06:56:00
11:56 PM,44.1,28.0,53,29.62,10.0,South,8.1,19.6,N/A,,Overcast,190,2012-12-13 07:56:00